createdAt,value
2022-08-09T00:01:52.473Z,4.70
2022-08-09T00:04:34.580Z,5.20
2022-08-09T00:07:07.868Z,5.10
2022-08-09T00:09:39.821Z,4.70
2022-08-09T00:12:22.468Z,4.80
2022-08-09T00:14:55.988Z,5.60
2022-08-09T00:18:05.513Z,6.50
2022-08-09T00:20:14.402Z,6.20
2022-08-09T00:22:47.159Z,4.30
2022-08-09T00:25:23.442Z,4.60
2022-08-09T00:28:01.150Z,6.50
2022-08-09T00:30:33.755Z,5.20
2022-08-09T00:33:02.042Z,7.10
2022-08-09T00:35:42.890Z,5.80
2022-08-09T00:38:16.762Z,5.00
2022-08-09T00:40:52.429Z,5.00
2022-08-09T00:44:13.487Z,4.70
2022-08-09T00:46:14.528Z,5.10
2022-08-09T00:48:56.864Z,4.90
2022-08-09T00:51:28.415Z,4.90
2022-08-09T00:55:16.772Z,6.10
2022-08-09T00:58:27.611Z,4.80
2022-08-09T01:00:57.017Z,4.30
2022-08-09T01:03:46.524Z,5.10
2022-08-09T01:06:35.356Z,4.40
2022-08-09T01:09:36.583Z,5.40
2022-08-09T01:12:20.264Z,5.40
2022-08-09T01:15:05.980Z,4.70
2022-08-09T01:17:41.979Z,3.80
2022-08-09T01:20:39.418Z,5.40
2022-08-09T01:24:00.622Z,6.30
2022-08-09T01:26:52.894Z,6.20
2022-08-09T01:29:41.185Z,4.10
2022-08-09T01:32:46.916Z,4.20
2022-08-09T01:35:37.406Z,4.70
2022-08-09T01:38:15.289Z,4.60
2022-08-09T01:41:12.304Z,4.80
2022-08-09T01:43:51.600Z,4.80
2022-08-09T01:46:27.008Z,4.70
2022-08-09T01:49:00.222Z,4.50
2022-08-09T01:51:53.665Z,4.30
2022-08-09T01:54:28.319Z,3.90
2022-08-09T01:57:11.972Z,5.60
2022-08-09T02:00:34.720Z,4.40
2022-08-09T02:02:59.287Z,6.70
2022-08-09T02:06:03.528Z,4.30
2022-08-09T02:08:58.883Z,5.10
2022-08-09T02:11:42.169Z,6.40
2022-08-09T02:14:39.239Z,5.10
2022-08-09T02:17:29.459Z,4.90
2022-08-09T02:19:58.490Z,5.50
2022-08-09T02:22:34.863Z,6.30
2022-08-09T02:25:11.083Z,4.70
2022-08-09T02:28:00.332Z,6.00
2022-08-09T02:30:48.722Z,4.80
2022-08-09T02:33:38.371Z,5.40
2022-08-09T02:36:41.842Z,4.80
2022-08-09T02:39:19.983Z,5.00
2022-08-09T02:42:08.143Z,4.60
2022-08-09T02:44:41.503Z,6.10
2022-08-09T02:47:57.442Z,6.90
2022-08-09T02:50:37.702Z,5.30
2022-08-09T02:53:26.617Z,6.60
2022-08-09T02:55:58.828Z,5.10
2022-08-09T02:58:32.374Z,5.00
2022-08-09T03:01:04.201Z,7.20
2022-08-09T03:04:12.765Z,8.50
2022-08-09T03:06:25.195Z,6.30
2022-08-09T03:08:57.685Z,7.70
2022-08-09T03:12:06.556Z,6.40
2022-08-09T03:15:05.786Z,4.80
2022-08-09T03:17:36.456Z,4.90
2022-08-09T03:20:11.411Z,5.40
2022-08-09T03:22:44.752Z,5.80
2022-08-09T03:25:56.778Z,8.50
2022-08-09T03:28:27.800Z,6.70
2022-08-09T03:30:57.052Z,6.70
2022-08-09T03:33:26.927Z,5.70
2022-08-09T03:36:40.401Z,6.60
2022-08-09T03:39:16.374Z,5.90
2022-08-09T03:41:48.608Z,8.90
2022-08-09T03:44:42.974Z,6.40
2022-08-09T03:49:57.679Z,7.80
2022-08-09T03:52:28.057Z,5.90
2022-08-09T03:54:58.306Z,5.80
2022-08-09T03:57:57.501Z,4.90
2022-08-09T04:00:34.994Z,4.00
2022-08-09T04:03:04.195Z,5.40
2022-08-09T04:05:40.366Z,5.50
2022-08-09T04:08:08.988Z,5.40
2022-08-09T04:11:02.644Z,7.10
2022-08-09T04:13:44.988Z,5.40
2022-08-09T04:16:21.420Z,7.00
2022-08-09T04:18:51.198Z,7.90
2022-08-09T04:21:20.511Z,6.00
2022-08-09T04:23:54.485Z,5.40
2022-08-09T04:26:37.959Z,5.80
2022-08-09T04:29:13.385Z,6.30
2022-08-09T04:31:47.058Z,5.90
2022-08-09T04:34:19.058Z,8.60
2022-08-09T04:36:58.806Z,5.90
2022-08-09T04:39:52.667Z,6.80
2022-08-09T04:42:23.734Z,7.80
2022-08-09T04:44:52.778Z,7.50
2022-08-09T04:47:21.574Z,6.60
2022-08-09T04:49:54.436Z,8.30
2022-08-09T04:52:27.479Z,7.00
2022-08-09T04:54:58.738Z,5.90
2022-08-09T04:57:58.462Z,8.60
2022-08-09T05:00:16.627Z,6.30
2022-08-09T05:02:48.602Z,6.60
2022-08-09T05:05:32.428Z,6.20
2022-08-09T05:08:13.943Z,6.20
2022-08-09T05:10:43.817Z,5.60
2022-08-09T05:13:14.408Z,5.60
2022-08-09T05:15:47.814Z,4.50
2022-08-09T05:21:13.547Z,4.10
2022-08-09T05:23:57.887Z,6.20
2022-08-09T05:26:41.000Z,8.30
2022-08-09T05:29:21.955Z,6.10
2022-08-09T05:31:57.206Z,5.00
2022-08-09T05:34:30.701Z,4.10
2022-08-09T05:39:35.817Z,6.10
2022-08-09T05:42:08.237Z,4.20
2022-08-09T05:44:37.833Z,5.30
2022-08-09T05:47:06.353Z,6.80
2022-08-09T05:50:32.140Z,6.00
2022-08-09T05:52:24.791Z,7.80
2022-08-09T05:54:53.224Z,4.50
2022-08-09T05:57:55.482Z,5.70
2022-08-09T06:00:51.564Z,6.60
2022-08-09T06:03:20.561Z,6.40
2022-08-09T06:06:16.084Z,5.70
2022-08-09T06:08:44.295Z,6.90
2022-08-09T06:11:21.004Z,10.60
2022-08-09T06:14:08.972Z,7.60
2022-08-09T06:16:37.441Z,6.10
2022-08-09T06:19:05.729Z,6.50
2022-08-09T06:21:34.429Z,4.70
2022-08-09T06:24:32.402Z,8.60
2022-08-09T06:27:00.773Z,5.60
2022-08-09T06:29:28.962Z,7.00
2022-08-09T06:32:17.224Z,7.40
2022-08-09T06:34:50.117Z,5.40
2022-08-09T06:37:20.869Z,6.80
2022-08-09T06:40:00.146Z,9.20
2022-08-09T06:42:33.682Z,11.30
2022-08-09T06:45:04.583Z,10.00
2022-08-09T06:48:00.558Z,9.20
2022-08-09T06:50:54.750Z,11.30
2022-08-09T06:53:49.998Z,8.90
2022-08-09T06:56:45.336Z,8.10
2022-08-09T07:00:57.133Z,7.50
2022-08-09T07:02:30.803Z,10.50
2022-08-09T07:05:00.786Z,12.10
2022-08-09T07:08:00.884Z,9.20
2022-08-09T07:10:29.918Z,8.00
2022-08-09T07:13:18.808Z,8.40
2022-08-09T07:16:35.244Z,5.60
2022-08-09T07:18:38.640Z,8.50
2022-08-09T07:21:07.948Z,5.30
2022-08-09T07:24:04.963Z,5.70
2022-08-09T07:26:33.965Z,5.70
2022-08-09T07:29:08.651Z,6.30
2022-08-09T07:31:45.823Z,4.90
2022-08-09T07:34:20.423Z,4.90
2022-08-09T07:36:50.010Z,4.80
2022-08-09T07:39:20.616Z,4.40
2022-08-09T07:42:06.751Z,5.10
2022-08-09T07:44:51.196Z,6.20
2022-08-09T07:47:21.726Z,3.30
2022-08-09T07:50:04.893Z,3.50
2022-08-09T07:52:38.374Z,4.10
2022-08-09T07:55:09.765Z,3.30
2022-08-09T07:57:47.254Z,5.80
2022-08-09T08:00:36.124Z,4.80
2022-08-09T08:03:08.319Z,5.30
2022-08-09T08:05:54.460Z,3.60
2022-08-09T08:08:59.642Z,4.50
2022-08-09T08:12:09.357Z,4.30
2022-08-09T08:14:04.747Z,4.80
2022-08-09T08:16:34.766Z,4.40
2022-08-09T08:19:04.676Z,4.30
2022-08-09T08:21:33.373Z,3.40
2022-08-09T08:24:35.248Z,5.10
2022-08-09T08:27:17.220Z,3.40
2022-08-09T08:29:50.040Z,3.10
2022-08-09T08:32:28.743Z,4.90
2022-08-09T08:34:59.325Z,3.70
2022-08-09T08:37:41.631Z,3.40
2022-08-09T08:40:16.629Z,3.40
2022-08-09T08:42:47.620Z,3.50
2022-08-09T08:45:37.327Z,5.50
2022-08-09T08:48:06.536Z,3.50
2022-08-09T08:50:38.471Z,3.60
2022-08-09T08:53:07.815Z,2.90
2022-08-09T08:55:44.265Z,2.80
2022-08-09T08:58:12.486Z,2.80
2022-08-09T09:00:42.915Z,2.50
2022-08-09T09:03:32.975Z,3.40
2022-08-09T09:06:05.905Z,3.30
2022-08-09T09:08:40.846Z,3.70
2022-08-09T09:11:17.331Z,3.60
2022-08-09T09:13:56.440Z,3.00
2022-08-09T09:16:31.224Z,2.30
2022-08-09T09:22:03.664Z,4.20
2022-08-09T09:24:38.934Z,4.90
2022-08-09T09:28:03.084Z,2.90
2022-08-09T09:30:16.513Z,3.20
2022-08-09T09:33:44.727Z,3.30
2022-08-09T09:36:20.262Z,2.90
2022-08-09T09:38:50.579Z,3.90
2022-08-09T09:41:33.103Z,3.10
2022-08-09T09:44:31.498Z,3.60
2022-08-09T09:47:12.061Z,2.40
2022-08-09T09:50:07.749Z,2.00
2022-08-09T09:52:53.817Z,3.10
2022-08-09T09:55:29.196Z,2.10
2022-08-09T09:58:15.715Z,3.40
2022-08-09T10:00:58.967Z,2.10
2022-08-09T10:03:58.027Z,3.90
2022-08-09T10:06:32.536Z,2.20
2022-08-09T10:09:21.482Z,2.50
2022-08-09T10:12:14.831Z,1.90
2022-08-09T10:14:48.484Z,2.00
2022-08-09T10:17:55.065Z,1.70
2022-08-09T10:20:31.887Z,3.00
2022-08-09T10:23:21.091Z,2.10
2022-08-09T10:26:04.292Z,1.90
2022-08-09T10:28:38.477Z,2.50
2022-08-09T10:32:27.643Z,2.80
2022-08-09T10:34:08.196Z,2.70
2022-08-09T10:36:49.973Z,2.80
2022-08-09T10:39:19.859Z,2.40
2022-08-09T10:41:49.477Z,2.50
2022-08-09T10:44:21.663Z,3.80
2022-08-09T10:47:04.073Z,1.60
2022-08-09T10:50:03.887Z,4.40
2022-08-09T10:52:44.769Z,3.30
2022-08-09T10:55:25.789Z,3.20
2022-08-09T10:57:59.827Z,4.00
2022-08-09T11:00:31.608Z,2.20
2022-08-09T11:03:15.935Z,2.60
2022-08-09T11:06:19.418Z,2.00
2022-08-09T11:08:51.192Z,1.90
2022-08-09T11:11:23.393Z,2.90
2022-08-09T11:14:32.085Z,1.60
2022-08-09T11:17:00.614Z,3.00
2022-08-09T11:20:11.462Z,1.50
2022-08-09T11:23:12.042Z,2.80
2022-08-09T11:25:47.764Z,4.00
2022-08-09T11:28:56.622Z,2.40
2022-08-09T11:31:50.461Z,2.30
2022-08-09T11:34:25.030Z,2.10
2022-08-09T11:36:55.928Z,1.60
2022-08-09T11:39:25.190Z,1.90
2022-08-09T11:42:08.571Z,1.80
2022-08-09T11:45:42.049Z,2.20
2022-08-09T11:48:19.316Z,2.10
2022-08-09T11:52:39.709Z,2.20
2022-08-09T11:54:29.032Z,1.80
2022-08-09T11:58:00.863Z,2.20
2022-08-09T12:00:28.130Z,1.50
2022-08-09T12:02:58.246Z,2.90
2022-08-09T12:05:35.801Z,1.50
2022-08-09T12:08:12.186Z,1.90
2022-08-09T12:10:49.947Z,1.50
2022-08-09T12:14:08.137Z,2.40
2022-08-09T12:16:37.789Z,3.60
2022-08-09T12:19:11.411Z,1.90
2022-08-09T12:21:48.661Z,1.20
2022-08-09T12:24:26.034Z,2.40
2022-08-09T12:29:14.709Z,2.60
2022-08-09T12:30:02.102Z,3.10
2022-08-09T12:32:44.849Z,2.40
2022-08-09T12:35:21.672Z,1.40
2022-08-09T12:37:52.244Z,1.10
2022-08-09T12:40:26.943Z,4.40
2022-08-09T12:45:33.796Z,1.50
2022-08-09T12:48:20.453Z,1.90
2022-08-09T12:50:57.386Z,1.90
2022-08-09T12:53:32.110Z,1.50
2022-08-09T12:56:39.498Z,1.60
2022-08-09T12:59:14.049Z,4.30
2022-08-09T13:01:49.840Z,3.30
2022-08-09T13:04:21.766Z,2.20
2022-08-09T13:07:16.789Z,1.30
2022-08-09T13:09:55.975Z,1.80
2022-08-09T13:13:09.167Z,1.30
2022-08-09T13:16:09.021Z,1.90
2022-08-09T13:18:43.280Z,3.20
2022-08-09T13:22:36.906Z,2.00
2022-08-09T13:24:48.423Z,1.80
2022-08-09T13:27:06.014Z,4.20
2022-08-09T13:30:02.761Z,1.00
2022-08-09T13:32:28.948Z,2.30
2022-08-09T13:34:57.460Z,3.10
2022-08-09T13:37:50.889Z,1.40
2022-08-09T13:41:50.813Z,1.70
2022-08-09T13:43:09.487Z,1.30
2022-08-09T13:46:44.456Z,2.00
2022-08-09T13:48:27.213Z,2.10
2022-08-09T13:50:58.389Z,3.10
2022-08-09T13:53:28.537Z,1.40
2022-08-09T13:56:12.215Z,1.80
2022-08-09T13:58:40.707Z,1.80
2022-08-09T14:01:55.730Z,3.00
2022-08-09T14:04:03.278Z,2.90
2022-08-09T14:06:32.756Z,1.90
2022-08-09T14:09:03.626Z,1.30
2022-08-09T14:11:32.024Z,2.10
2022-08-09T14:14:22.822Z,3.60
2022-08-09T14:16:54.675Z,1.60
2022-08-09T14:19:23.078Z,1.90
2022-08-09T14:21:51.610Z,2.10
2022-08-09T14:24:31.978Z,1.90
2022-08-09T14:27:01.340Z,2.30
2022-08-09T14:30:24.636Z,2.60
2022-08-09T14:32:28.738Z,2.30
2022-08-09T14:35:00.090Z,2.40
2022-08-09T14:38:01.554Z,2.10
2022-08-09T14:40:17.726Z,3.10
2022-08-09T14:42:46.515Z,2.30
2022-08-09T14:46:54.602Z,3.90
2022-08-09T14:48:03.638Z,2.90
2022-08-09T14:50:34.412Z,2.40
2022-08-09T14:53:11.540Z,3.10
2022-08-09T14:55:47.668Z,2.10
2022-08-09T14:58:16.205Z,1.90
2022-08-09T15:00:48.363Z,3.20
2022-08-09T15:03:20.691Z,2.40
2022-08-09T15:05:54.754Z,3.60
2022-08-09T15:08:26.606Z,4.80
2022-08-09T15:11:00.420Z,3.30
2022-08-09T15:13:48.611Z,1.90
2022-08-09T15:16:19.770Z,4.70
2022-08-09T15:18:49.284Z,2.80
2022-08-09T15:21:57.884Z,2.10
2022-08-09T15:24:12.490Z,3.30
2022-08-09T15:26:45.896Z,1.50
2022-08-09T15:30:58.429Z,3.50
2022-08-09T15:32:04.831Z,2.10
2022-08-09T15:34:35.282Z,3.30
2022-08-09T15:37:38.106Z,2.40
2022-08-09T15:40:15.946Z,2.50
2022-08-09T15:42:51.186Z,4.90
2022-08-09T15:45:29.177Z,1.70
2022-08-09T15:48:05.462Z,2.10
2022-08-09T15:50:38.826Z,3.50
2022-08-09T15:53:17.760Z,2.10
2022-08-09T15:56:04.274Z,3.80
2022-08-09T15:58:36.185Z,3.30
2022-08-09T16:01:04.602Z,3.90
2022-08-09T16:03:38.181Z,3.40
2022-08-09T16:06:07.868Z,4.60
2022-08-09T16:09:00.867Z,2.30
2022-08-09T16:11:30.851Z,1.90
2022-08-09T16:14:03.735Z,3.00
2022-08-09T16:16:37.231Z,2.00
2022-08-09T16:19:07.866Z,3.10
2022-08-09T16:21:37.274Z,1.70
2022-08-09T16:24:08.851Z,2.70
2022-08-09T16:26:56.816Z,3.10
2022-08-09T16:29:52.312Z,5.70
2022-08-09T16:32:33.955Z,3.10
2022-08-09T16:35:03.751Z,2.20
2022-08-09T16:37:55.990Z,2.90
2022-08-09T16:40:40.299Z,3.60
2022-08-09T16:43:09.692Z,3.00
2022-08-09T16:45:44.393Z,3.50
2022-08-09T16:48:40.829Z,2.40
2022-08-09T16:51:08.230Z,3.60
2022-08-09T16:54:08.849Z,3.60
2022-08-09T16:56:32.319Z,4.50
2022-08-09T16:59:06.709Z,4.70
2022-08-09T17:01:39.464Z,2.50
2022-08-09T17:04:26.026Z,4.00
2022-08-09T17:08:40.761Z,5.40
2022-08-09T17:09:47.328Z,4.60
2022-08-09T17:12:17.001Z,6.30
2022-08-09T17:14:47.856Z,3.70
2022-08-09T17:17:26.914Z,2.80
2022-08-09T17:20:28.841Z,4.70
2022-08-09T17:22:49.915Z,3.70
2022-08-09T17:25:18.799Z,3.90
2022-08-09T17:27:49.581Z,5.20
2022-08-09T17:30:26.591Z,5.50
2022-08-09T17:33:01.321Z,4.50
2022-08-09T17:35:35.790Z,5.90
2022-08-09T17:38:31.026Z,5.50
2022-08-09T17:40:58.177Z,3.60
2022-08-09T17:43:34.479Z,3.80
2022-08-09T17:46:08.831Z,5.30
2022-08-09T17:48:52.045Z,4.60
2022-08-09T17:51:21.717Z,7.30
2022-08-09T17:53:53.450Z,5.70
2022-08-09T17:58:58.851Z,4.30
2022-08-09T18:01:40.864Z,5.00
2022-08-09T18:04:19.836Z,4.80
2022-08-09T18:06:54.052Z,5.50
2022-08-09T18:09:40.673Z,8.20
2022-08-09T18:12:17.304Z,5.80
2022-08-09T18:14:54.211Z,4.70
2022-08-09T18:18:02.304Z,9.20
2022-08-09T18:20:58.425Z,6.70
2022-08-09T18:24:09.545Z,8.20
2022-08-09T18:26:09.614Z,4.80
2022-08-09T18:30:35.215Z,7.30
2022-08-09T18:31:51.485Z,4.00
2022-08-09T18:34:14.365Z,3.90
2022-08-09T18:36:49.414Z,4.90
2022-08-09T18:39:18.137Z,7.00
2022-08-09T18:41:52.601Z,7.60
2022-08-09T18:44:25.775Z,6.80
2022-08-09T18:47:07.878Z,5.70
2022-08-09T18:49:46.512Z,5.00
2022-08-09T18:52:27.249Z,6.00
2022-08-09T18:55:04.429Z,4.40
2022-08-09T18:57:42.899Z,6.00
2022-08-09T19:00:16.668Z,5.80
2022-08-09T19:02:54.248Z,7.30
2022-08-09T19:05:28.623Z,9.60
2022-08-09T19:08:13.975Z,8.50
2022-08-09T19:10:48.073Z,9.40
2022-08-09T19:13:20.103Z,5.50
2022-08-09T19:15:53.017Z,9.10
2022-08-09T19:18:33.158Z,5.10
2022-08-09T19:21:10.310Z,8.50
2022-08-09T19:24:32.489Z,8.10
2022-08-09T19:26:34.657Z,10.20
2022-08-09T19:29:15.439Z,6.00
2022-08-09T19:31:51.132Z,11.60
2022-08-09T19:34:23.199Z,11.20
2022-08-09T19:36:54.889Z,9.10
2022-08-09T19:39:43.045Z,6.60
2022-08-09T19:42:15.050Z,12.60
2022-08-09T19:44:50.928Z,7.20
2022-08-09T19:47:23.578Z,7.50
2022-08-09T19:50:07.499Z,7.90
2022-08-09T19:52:49.738Z,6.90
2022-08-09T19:55:30.553Z,9.00
2022-08-09T19:58:16.627Z,8.00
2022-08-09T20:00:47.289Z,6.00
2022-08-09T20:04:10.892Z,7.30
2022-08-09T20:06:22.313Z,4.80
2022-08-09T20:08:55.331Z,9.00
2022-08-09T20:11:42.806Z,6.40
2022-08-09T20:14:16.599Z,6.80
2022-08-09T20:16:53.145Z,5.00
2022-08-09T20:19:47.765Z,5.90
2022-08-09T20:22:14.139Z,6.80
2022-08-09T20:24:53.985Z,6.80
2022-08-09T20:27:22.795Z,7.20
2022-08-09T20:29:51.118Z,6.10
2022-08-09T20:32:45.493Z,6.00
2022-08-09T20:35:09.010Z,6.40
2022-08-09T20:38:19.518Z,6.80
2022-08-09T20:40:28.207Z,7.00
2022-08-09T20:44:12.055Z,7.20
2022-08-09T20:46:43.885Z,5.20
2022-08-09T20:49:15.894Z,8.20
2022-08-09T20:51:50.346Z,9.20
2022-08-09T20:54:19.501Z,6.50
2022-08-09T20:56:53.372Z,8.40
2022-08-09T20:59:50.309Z,5.90
2022-08-09T21:02:17.405Z,5.50
2022-08-09T21:05:57.595Z,7.10
2022-08-09T21:07:40.768Z,7.30
2022-08-09T21:10:12.801Z,5.10
2022-08-09T21:18:21.163Z,5.30
2022-08-09T21:20:54.512Z,8.00
2022-08-09T21:23:29.221Z,5.30
2022-08-09T21:26:15.573Z,7.00
2022-08-09T21:28:55.477Z,5.90
2022-08-09T21:31:48.704Z,5.40
2022-08-09T21:34:14.775Z,5.60
2022-08-09T21:36:57.373Z,6.60
2022-08-09T21:39:28.085Z,6.50
2022-08-09T21:42:11.064Z,5.30
2022-08-09T21:44:42.795Z,6.60
2022-08-09T21:47:17.658Z,6.40
2022-08-09T21:49:48.233Z,6.70
2022-08-09T21:52:20.704Z,6.50
2022-08-09T21:55:02.788Z,5.60
2022-08-09T21:57:38.551Z,5.70
2022-08-09T22:00:31.882Z,6.80
2022-08-09T22:03:06.279Z,6.50
2022-08-09T22:05:37.388Z,8.30
2022-08-09T22:08:14.672Z,7.60
2022-08-09T22:11:05.202Z,7.60
2022-08-09T22:13:36.941Z,10.00
2022-08-09T22:16:07.351Z,8.20
2022-08-09T22:18:53.022Z,8.00
2022-08-09T22:21:45.366Z,7.70
2022-08-09T22:24:17.041Z,7.80
2022-08-09T22:26:51.590Z,8.00
2022-08-09T22:29:28.436Z,8.80
2022-08-09T22:32:02.658Z,6.60
2022-08-09T22:34:31.011Z,8.20
2022-08-09T22:37:00.094Z,7.60
2022-08-09T22:39:55.706Z,7.40
2022-08-09T22:42:22.595Z,6.30
2022-08-09T22:48:04.492Z,8.20
2022-08-09T22:48:10.398Z,7.10
2022-08-09T22:50:32.897Z,6.90
2022-08-09T22:53:03.588Z,6.30
2022-08-09T22:56:06.703Z,7.80
2022-08-09T22:58:32.340Z,6.10
2022-08-09T23:01:03.261Z,8.10
2022-08-09T23:04:04.160Z,7.80
2022-08-09T23:06:35.158Z,6.00
2022-08-09T23:09:07.933Z,7.10
2022-08-09T23:12:01.423Z,6.90
2022-08-09T23:14:37.615Z,7.70
2022-08-09T23:18:01.439Z,7.00
2022-08-09T23:20:54.253Z,7.00
2022-08-09T23:23:22.529Z,6.80
2022-08-09T23:25:50.720Z,7.10
2022-08-09T23:28:19.060Z,6.10
2022-08-09T23:31:37.229Z,6.80
2022-08-09T23:34:05.516Z,6.70
2022-08-09T23:36:35.388Z,5.90
2022-08-09T23:39:06.582Z,5.90
2022-08-09T23:42:05.633Z,6.40
2022-08-09T23:44:33.805Z,6.20
2022-08-09T23:47:27.533Z,7.00
2022-08-09T23:51:11.194Z,7.50
2022-08-09T23:53:39.401Z,7.40
2022-08-09T23:56:08.039Z,6.50
2022-08-09T23:58:37.343Z,6.60
